sensor_id;sensor_type;location;lat;lon;timestamp;P1;durP1;ratioP1;P2;durP2;ratioP2
63688;SDS011;54895;40.928;14.480;2023-07-31T00:01:27;9.48;;;4.80;;
63688;SDS011;54895;40.928;14.480;2023-07-31T00:03:53;8.27;;;4.10;;
63688;SDS011;54895;40.928;14.480;2023-07-31T00:06:19;7.43;;;3.83;;
63688;SDS011;54895;40.928;14.480;2023-07-31T00:08:45;8.77;;;3.45;;
63688;SDS011;54895;40.928;14.480;2023-07-31T00:11:11;9.65;;;3.88;;
63688;SDS011;54895;40.928;14.480;2023-07-31T00:13:38;10.35;;;3.63;;
63688;SDS011;54895;40.928;14.480;2023-07-31T00:16:04;6.53;;;3.28;;
63688;SDS011;54895;40.928;14.480;2023-07-31T00:18:30;5.93;;;3.60;;
63688;SDS011;54895;40.928;14.480;2023-07-31T00:20:56;4.85;;;3.10;;
63688;SDS011;54895;40.928;14.480;2023-07-31T00:23:23;8.63;;;3.47;;
63688;SDS011;54895;40.928;14.480;2023-07-31T00:25:49;9.52;;;3.15;;
63688;SDS011;54895;40.928;14.480;2023-07-31T00:32:09;5.90;;;3.30;;
63688;SDS011;54895;40.928;14.480;2023-07-31T00:34:37;7.90;;;3.55;;
63688;SDS011;54895;40.928;14.480;2023-07-31T00:37:03;6.10;;;2.80;;
63688;SDS011;54895;40.928;14.480;2023-07-31T00:39:30;5.75;;;3.08;;
63688;SDS011;54895;40.928;14.480;2023-07-31T00:42:00;7.22;;;3.22;;
63688;SDS011;54895;40.928;14.480;2023-07-31T00:44:26;6.43;;;3.80;;
63688;SDS011;54895;40.928;14.480;2023-07-31T00:46:56;8.00;;;3.13;;
63688;SDS011;54895;40.928;14.480;2023-07-31T00:49:29;7.30;;;3.22;;
63688;SDS011;54895;40.928;14.480;2023-07-31T00:51:57;6.15;;;3.30;;
63688;SDS011;54895;40.928;14.480;2023-07-31T00:54:25;7.93;;;3.53;;
63688;SDS011;54895;40.928;14.480;2023-07-31T00:56:52;6.72;;;3.45;;
63688;SDS011;54895;40.928;14.480;2023-07-31T00:59:21;6.20;;;3.40;;
63688;SDS011;54895;40.928;14.480;2023-07-31T01:01:48;7.35;;;3.13;;
63688;SDS011;54895;40.928;14.480;2023-07-31T01:04:15;5.18;;;2.88;;
63688;SDS011;54895;40.928;14.480;2023-07-31T01:06:53;7.80;;;2.92;;
63688;SDS011;54895;40.928;14.480;2023-07-31T01:12:34;7.32;;;3.40;;
63688;SDS011;54895;40.928;14.480;2023-07-31T01:15:07;7.97;;;3.50;;
63688;SDS011;54895;40.928;14.480;2023-07-31T01:17:38;6.82;;;3.10;;
63688;SDS011;54895;40.928;14.480;2023-07-31T01:20:20;6.95;;;3.20;;
63688;SDS011;54895;40.928;14.480;2023-07-31T01:31:23;9.52;;;3.45;;
63688;SDS011;54895;40.928;14.480;2023-07-31T01:33:59;8.07;;;3.40;;
63688;SDS011;54895;40.928;14.480;2023-07-31T01:36:27;6.30;;;3.15;;
63688;SDS011;54895;40.928;14.480;2023-07-31T01:39:02;6.97;;;3.67;;
63688;SDS011;54895;40.928;14.480;2023-07-31T01:41:30;10.02;;;3.45;;
63688;SDS011;54895;40.928;14.480;2023-07-31T01:43:57;6.40;;;3.13;;
63688;SDS011;54895;40.928;14.480;2023-07-31T01:46:23;8.07;;;3.50;;
63688;SDS011;54895;40.928;14.480;2023-07-31T01:48:50;8.82;;;3.50;;
63688;SDS011;54895;40.928;14.480;2023-07-31T01:51:16;8.52;;;3.38;;
63688;SDS011;54895;40.928;14.480;2023-07-31T01:53:43;6.82;;;3.30;;
63688;SDS011;54895;40.928;14.480;2023-07-31T01:56:09;9.02;;;3.70;;
63688;SDS011;54895;40.928;14.480;2023-07-31T01:58:43;6.38;;;3.60;;
63688;SDS011;54895;40.928;14.480;2023-07-31T02:01:23;7.30;;;3.22;;
63688;SDS011;54895;40.928;14.480;2023-07-31T02:03:49;7.60;;;3.30;;
63688;SDS011;54895;40.928;14.480;2023-07-31T02:06:16;5.88;;;3.38;;
63688;SDS011;54895;40.928;14.480;2023-07-31T02:08:43;8.43;;;3.58;;
63688;SDS011;54895;40.928;14.480;2023-07-31T02:11:09;7.40;;;3.55;;
63688;SDS011;54895;40.928;14.480;2023-07-31T02:13:35;8.18;;;3.55;;
63688;SDS011;54895;40.928;14.480;2023-07-31T02:16:02;7.60;;;3.50;;
63688;SDS011;54895;40.928;14.480;2023-07-31T02:18:28;6.22;;;3.60;;
63688;SDS011;54895;40.928;14.480;2023-07-31T02:20:55;8.23;;;3.67;;
63688;SDS011;54895;40.928;14.480;2023-07-31T02:23:22;8.27;;;3.78;;
63688;SDS011;54895;40.928;14.480;2023-07-31T02:25:48;8.45;;;3.17;;
63688;SDS011;54895;40.928;14.480;2023-07-31T02:32:02;7.97;;;3.25;;
63688;SDS011;54895;40.928;14.480;2023-07-31T02:34:28;6.07;;;3.45;;
63688;SDS011;54895;40.928;14.480;2023-07-31T02:36:55;6.75;;;3.30;;
63688;SDS011;54895;40.928;14.480;2023-07-31T02:39:21;5.82;;;3.40;;
63688;SDS011;54895;40.928;14.480;2023-07-31T02:41:47;6.97;;;3.45;;
63688;SDS011;54895;40.928;14.480;2023-07-31T02:44:13;6.60;;;3.60;;
63688;SDS011;54895;40.928;14.480;2023-07-31T02:46:40;7.00;;;3.30;;
63688;SDS011;54895;40.928;14.480;2023-07-31T02:49:06;6.13;;;3.22;;
63688;SDS011;54895;40.928;14.480;2023-07-31T02:51:33;7.47;;;3.53;;
63688;SDS011;54895;40.928;14.480;2023-07-31T02:53:59;8.10;;;3.63;;
63688;SDS011;54895;40.928;14.480;2023-07-31T02:56:25;5.53;;;3.38;;
63688;SDS011;54895;40.928;14.480;2023-07-31T02:58:52;6.90;;;3.40;;
63688;SDS011;54895;40.928;14.480;2023-07-31T03:01:18;8.82;;;3.30;;
63688;SDS011;54895;40.928;14.480;2023-07-31T03:03:44;11.52;;;3.70;;
63688;SDS011;54895;40.928;14.480;2023-07-31T03:06:11;6.88;;;3.20;;
63688;SDS011;54895;40.928;14.480;2023-07-31T03:08:37;8.00;;;3.60;;
63688;SDS011;54895;40.928;14.480;2023-07-31T03:11:04;6.78;;;3.28;;
63688;SDS011;54895;40.928;14.480;2023-07-31T03:13:30;6.40;;;3.20;;
63688;SDS011;54895;40.928;14.480;2023-07-31T03:15:56;6.35;;;3.63;;
63688;SDS011;54895;40.928;14.480;2023-07-31T03:18:22;8.57;;;3.80;;
63688;SDS011;54895;40.928;14.480;2023-07-31T03:20:49;8.55;;;3.35;;
63688;SDS011;54895;40.928;14.480;2023-07-31T03:23:16;9.60;;;3.15;;
63688;SDS011;54895;40.928;14.480;2023-07-31T03:25:54;6.43;;;3.30;;
63688;SDS011;54895;40.928;14.480;2023-07-31T03:32:21;5.80;;;3.20;;
63688;SDS011;54895;40.928;14.480;2023-07-31T03:34:47;7.90;;;3.10;;
63688;SDS011;54895;40.928;14.480;2023-07-31T03:37:13;6.95;;;3.30;;
63688;SDS011;54895;40.928;14.480;2023-07-31T03:39:39;6.60;;;3.78;;
63688;SDS011;54895;40.928;14.480;2023-07-31T03:42:06;8.82;;;3.58;;
63688;SDS011;54895;40.928;14.480;2023-07-31T03:44:33;9.13;;;3.47;;
63688;SDS011;54895;40.928;14.480;2023-07-31T03:46:59;7.43;;;3.40;;
63688;SDS011;54895;40.928;14.480;2023-07-31T03:49:25;8.98;;;3.75;;
63688;SDS011;54895;40.928;14.480;2023-07-31T03:51:52;15.45;;;4.35;;
63688;SDS011;54895;40.928;14.480;2023-07-31T03:54:18;56.78;;;6.20;;
63688;SDS011;54895;40.928;14.480;2023-07-31T03:56:44;87.72;;;7.53;;
63688;SDS011;54895;40.928;14.480;2023-07-31T03:59:10;17.98;;;4.20;;
63688;SDS011;54895;40.928;14.480;2023-07-31T04:01:37;5.72;;;3.30;;
63688;SDS011;54895;40.928;14.480;2023-07-31T04:04:03;11.93;;;3.67;;
63688;SDS011;54895;40.928;14.480;2023-07-31T04:06:29;13.68;;;3.83;;
63688;SDS011;54895;40.928;14.480;2023-07-31T04:08:56;31.20;;;5.45;;
63688;SDS011;54895;40.928;14.480;2023-07-31T04:11:22;25.00;;;5.53;;
63688;SDS011;54895;40.928;14.480;2023-07-31T04:13:48;23.70;;;5.32;;
63688;SDS011;54895;40.928;14.480;2023-07-31T04:16:14;16.73;;;4.28;;
63688;SDS011;54895;40.928;14.480;2023-07-31T04:18:41;13.55;;;3.97;;
63688;SDS011;54895;40.928;14.480;2023-07-31T04:21:07;6.50;;;3.40;;
63688;SDS011;54895;40.928;14.480;2023-07-31T04:23:33;8.23;;;3.55;;
63688;SDS011;54895;40.928;14.480;2023-07-31T04:26:00;7.57;;;3.42;;
63688;SDS011;54895;40.928;14.480;2023-07-31T04:32:16;11.38;;;3.80;;
63688;SDS011;54895;40.928;14.480;2023-07-31T04:34:43;10.35;;;3.83;;
63688;SDS011;54895;40.928;14.480;2023-07-31T04:37:09;13.10;;;3.63;;
63688;SDS011;54895;40.928;14.480;2023-07-31T04:39:35;10.13;;;3.53;;
63688;SDS011;54895;40.928;14.480;2023-07-31T04:42:02;7.85;;;3.40;;
63688;SDS011;54895;40.928;14.480;2023-07-31T04:44:28;7.47;;;3.30;;
63688;SDS011;54895;40.928;14.480;2023-07-31T04:46:54;6.97;;;3.45;;
63688;SDS011;54895;40.928;14.480;2023-07-31T04:49:21;26.20;;;5.70;;
63688;SDS011;54895;40.928;14.480;2023-07-31T04:51:47;78.45;;;9.77;;
63688;SDS011;54895;40.928;14.480;2023-07-31T04:54:14;80.70;;;10.23;;
63688;SDS011;54895;40.928;14.480;2023-07-31T04:56:43;30.02;;;6.60;;
63688;SDS011;54895;40.928;14.480;2023-07-31T04:59:09;26.70;;;5.35;;
63688;SDS011;54895;40.928;14.480;2023-07-31T05:01:35;14.25;;;4.03;;
63688;SDS011;54895;40.928;14.480;2023-07-31T05:04:02;12.30;;;3.95;;
63688;SDS011;54895;40.928;14.480;2023-07-31T05:06:28;13.15;;;3.88;;
63688;SDS011;54895;40.928;14.480;2023-07-31T05:08:55;10.25;;;3.95;;
63688;SDS011;54895;40.928;14.480;2023-07-31T05:11:21;10.77;;;4.03;;
63688;SDS011;54895;40.928;14.480;2023-07-31T05:13:47;9.65;;;3.67;;
63688;SDS011;54895;40.928;14.480;2023-07-31T05:16:13;10.80;;;4.35;;
63688;SDS011;54895;40.928;14.480;2023-07-31T05:18:40;10.57;;;3.63;;
63688;SDS011;54895;40.928;14.480;2023-07-31T05:21:06;6.45;;;3.35;;
63688;SDS011;54895;40.928;14.480;2023-07-31T05:23:33;6.40;;;3.08;;
63688;SDS011;54895;40.928;14.480;2023-07-31T05:26:03;9.48;;;3.58;;
63688;SDS011;54895;40.928;14.480;2023-07-31T05:32:35;6.25;;;3.10;;
63688;SDS011;54895;40.928;14.480;2023-07-31T05:35:05;11.35;;;3.53;;
63688;SDS011;54895;40.928;14.480;2023-07-31T05:37:31;5.35;;;3.20;;
63688;SDS011;54895;40.928;14.480;2023-07-31T05:39:57;6.03;;;2.78;;
63688;SDS011;54895;40.928;14.480;2023-07-31T05:42:24;6.63;;;3.50;;
63688;SDS011;54895;40.928;14.480;2023-07-31T05:44:50;7.85;;;3.00;;
63688;SDS011;54895;40.928;14.480;2023-07-31T05:47:16;8.20;;;3.20;;
63688;SDS011;54895;40.928;14.480;2023-07-31T05:49:43;6.40;;;3.03;;
63688;SDS011;54895;40.928;14.480;2023-07-31T05:52:10;7.65;;;3.35;;
63688;SDS011;54895;40.928;14.480;2023-07-31T05:54:36;8.00;;;3.55;;
63688;SDS011;54895;40.928;14.480;2023-07-31T05:57:02;7.60;;;3.45;;
63688;SDS011;54895;40.928;14.480;2023-07-31T05:59:29;9.45;;;3.30;;
63688;SDS011;54895;40.928;14.480;2023-07-31T06:01:56;8.10;;;3.40;;
63688;SDS011;54895;40.928;14.480;2023-07-31T06:04:23;10.07;;;3.53;;
63688;SDS011;54895;40.928;14.480;2023-07-31T06:06:51;12.60;;;3.95;;
63688;SDS011;54895;40.928;14.480;2023-07-31T06:09:18;9.32;;;3.42;;
63688;SDS011;54895;40.928;14.480;2023-07-31T06:11:45;12.80;;;4.00;;
63688;SDS011;54895;40.928;14.480;2023-07-31T06:14:12;10.18;;;4.25;;
63688;SDS011;54895;40.928;14.480;2023-07-31T06:16:38;14.52;;;3.95;;
63688;SDS011;54895;40.928;14.480;2023-07-31T06:19:04;9.27;;;3.60;;
63688;SDS011;54895;40.928;14.480;2023-07-31T06:21:30;11.52;;;3.75;;
63688;SDS011;54895;40.928;14.480;2023-07-31T06:23:57;10.68;;;3.90;;
63688;SDS011;54895;40.928;14.480;2023-07-31T06:26:23;10.98;;;3.90;;
63688;SDS011;54895;40.928;14.480;2023-07-31T06:32:30;15.70;;;4.82;;
63688;SDS011;54895;40.928;14.480;2023-07-31T06:34:57;11.27;;;4.35;;
63688;SDS011;54895;40.928;14.480;2023-07-31T06:37:23;11.23;;;4.75;;
63688;SDS011;54895;40.928;14.480;2023-07-31T06:39:49;7.38;;;3.42;;
63688;SDS011;54895;40.928;14.480;2023-07-31T06:42:15;10.30;;;3.53;;
63688;SDS011;54895;40.928;14.480;2023-07-31T06:44:42;9.77;;;3.40;;
63688;SDS011;54895;40.928;14.480;2023-07-31T06:47:08;8.57;;;3.65;;
63688;SDS011;54895;40.928;14.480;2023-07-31T06:49:34;11.10;;;4.80;;
63688;SDS011;54895;40.928;14.480;2023-07-31T06:52:01;11.18;;;3.75;;
63688;SDS011;54895;40.928;14.480;2023-07-31T06:54:27;10.85;;;3.13;;
63688;SDS011;54895;40.928;14.480;2023-07-31T06:56:53;8.10;;;2.90;;
63688;SDS011;54895;40.928;14.480;2023-07-31T06:59:20;6.35;;;3.00;;
63688;SDS011;54895;40.928;14.480;2023-07-31T07:01:46;11.25;;;3.78;;
63688;SDS011;54895;40.928;14.480;2023-07-31T07:04:13;6.38;;;2.90;;
63688;SDS011;54895;40.928;14.480;2023-07-31T07:06:39;6.18;;;2.78;;
63688;SDS011;54895;40.928;14.480;2023-07-31T07:09:06;12.13;;;3.00;;
63688;SDS011;54895;40.928;14.480;2023-07-31T07:11:32;5.30;;;2.63;;
63688;SDS011;54895;40.928;14.480;2023-07-31T07:13:58;7.80;;;3.13;;
63688;SDS011;54895;40.928;14.480;2023-07-31T07:16:25;10.63;;;2.80;;
63688;SDS011;54895;40.928;14.480;2023-07-31T07:18:51;5.55;;;2.67;;
63688;SDS011;54895;40.928;14.480;2023-07-31T07:21:17;7.13;;;3.22;;
63688;SDS011;54895;40.928;14.480;2023-07-31T07:23:44;5.93;;;2.65;;
63688;SDS011;54895;40.928;14.480;2023-07-31T07:26:10;5.20;;;2.70;;
63688;SDS011;54895;40.928;14.480;2023-07-31T07:32:49;7.35;;;2.75;;
63688;SDS011;54895;40.928;14.480;2023-07-31T07:35:15;5.00;;;2.50;;
63688;SDS011;54895;40.928;14.480;2023-07-31T07:37:41;6.32;;;2.70;;
63688;SDS011;54895;40.928;14.480;2023-07-31T07:40:08;6.47;;;2.55;;
63688;SDS011;54895;40.928;14.480;2023-07-31T07:42:34;5.63;;;2.13;;
63688;SDS011;54895;40.928;14.480;2023-07-31T07:45:01;8.40;;;2.63;;
63688;SDS011;54895;40.928;14.480;2023-07-31T07:47:27;6.82;;;2.38;;
63688;SDS011;54895;40.928;14.480;2023-07-31T07:49:54;5.40;;;2.40;;
63688;SDS011;54895;40.928;14.480;2023-07-31T07:52:23;7.22;;;2.83;;
63688;SDS011;54895;40.928;14.480;2023-07-31T07:54:49;5.60;;;2.53;;
63688;SDS011;54895;40.928;14.480;2023-07-31T07:57:16;9.23;;;2.58;;
63688;SDS011;54895;40.928;14.480;2023-07-31T07:59:42;4.68;;;2.42;;
63688;SDS011;54895;40.928;14.480;2023-07-31T08:02:08;5.18;;;2.35;;
63688;SDS011;54895;40.928;14.480;2023-07-31T08:04:34;7.70;;;2.72;;
63688;SDS011;54895;40.928;14.480;2023-07-31T08:07:00;6.45;;;2.60;;
63688;SDS011;54895;40.928;14.480;2023-07-31T08:09:27;6.22;;;2.70;;
63688;SDS011;54895;40.928;14.480;2023-07-31T08:11:53;8.93;;;2.65;;
63688;SDS011;54895;40.928;14.480;2023-07-31T08:14:20;6.30;;;2.72;;
63688;SDS011;54895;40.928;14.480;2023-07-31T08:16:46;7.00;;;2.83;;
63688;SDS011;54895;40.928;14.480;2023-07-31T08:19:13;5.40;;;2.80;;
63688;SDS011;54895;40.928;14.480;2023-07-31T08:21:39;9.00;;;3.08;;
63688;SDS011;54895;40.928;14.480;2023-07-31T08:24:08;5.20;;;2.53;;
63688;SDS011;54895;40.928;14.480;2023-07-31T08:26:34;6.60;;;3.00;;
63688;SDS011;54895;40.928;14.480;2023-07-31T08:29:00;7.22;;;2.90;;
63688;SDS011;54895;40.928;14.480;2023-07-31T08:31:27;6.63;;;2.83;;
63688;SDS011;54895;40.928;14.480;2023-07-31T08:34:07;6.32;;;2.90;;
63688;SDS011;54895;40.928;14.480;2023-07-31T08:36:33;10.15;;;3.03;;
63688;SDS011;54895;40.928;14.480;2023-07-31T08:38:59;7.40;;;3.00;;
63688;SDS011;54895;40.928;14.480;2023-07-31T08:41:26;8.70;;;3.40;;
63688;SDS011;54895;40.928;14.480;2023-07-31T08:43:54;9.00;;;3.20;;
63688;SDS011;54895;40.928;14.480;2023-07-31T08:46:21;10.70;;;3.35;;
63688;SDS011;54895;40.928;14.480;2023-07-31T08:48:49;8.95;;;3.58;;
63688;SDS011;54895;40.928;14.480;2023-07-31T08:51:17;8.70;;;3.13;;
63688;SDS011;54895;40.928;14.480;2023-07-31T08:53:44;7.13;;;3.35;;
63688;SDS011;54895;40.928;14.480;2023-07-31T08:56:10;6.13;;;3.08;;
63688;SDS011;54895;40.928;14.480;2023-07-31T08:58:40;12.18;;;3.28;;
63688;SDS011;54895;40.928;14.480;2023-07-31T09:01:07;10.90;;;3.17;;
63688;SDS011;54895;40.928;14.480;2023-07-31T09:03:34;6.65;;;3.17;;
63688;SDS011;54895;40.928;14.480;2023-07-31T09:06:02;7.38;;;3.28;;
63688;SDS011;54895;40.928;14.480;2023-07-31T09:08:32;7.53;;;3.60;;
63688;SDS011;54895;40.928;14.480;2023-07-31T09:10:59;11.57;;;3.08;;
63688;SDS011;54895;40.928;14.480;2023-07-31T09:13:28;8.20;;;3.30;;
63688;SDS011;54895;40.928;14.480;2023-07-31T09:15:55;8.35;;;3.03;;
63688;SDS011;54895;40.928;14.480;2023-07-31T09:18:23;5.50;;;3.00;;
63688;SDS011;54895;40.928;14.480;2023-07-31T09:21:05;7.57;;;3.10;;
63688;SDS011;54895;40.928;14.480;2023-07-31T09:23:45;7.53;;;3.10;;
63688;SDS011;54895;40.928;14.480;2023-07-31T09:26:32;5.20;;;2.72;;
63688;SDS011;54895;40.928;14.480;2023-07-31T09:33:01;9.80;;;3.03;;
63688;SDS011;54895;40.928;14.480;2023-07-31T09:35:33;5.07;;;2.67;;
63688;SDS011;54895;40.928;14.480;2023-07-31T09:38:06;8.50;;;2.80;;
63688;SDS011;54895;40.928;14.480;2023-07-31T09:40:38;8.73;;;2.97;;
63688;SDS011;54895;40.928;14.480;2023-07-31T09:43:08;9.32;;;3.10;;
63688;SDS011;54895;40.928;14.480;2023-07-31T09:45:38;6.93;;;3.00;;
63688;SDS011;54895;40.928;14.480;2023-07-31T09:48:07;5.53;;;2.70;;
63688;SDS011;54895;40.928;14.480;2023-07-31T09:50:36;8.10;;;2.67;;
63688;SDS011;54895;40.928;14.480;2023-07-31T09:53:04;10.88;;;3.05;;
63688;SDS011;54895;40.928;14.480;2023-07-31T09:55:31;7.57;;;2.92;;
63688;SDS011;54895;40.928;14.480;2023-07-31T09:57:58;9.23;;;3.10;;
63688;SDS011;54895;40.928;14.480;2023-07-31T10:00:26;8.60;;;2.95;;
63688;SDS011;54895;40.928;14.480;2023-07-31T10:02:54;6.65;;;3.20;;
63688;SDS011;54895;40.928;14.480;2023-07-31T10:05:24;4.90;;;2.63;;
63688;SDS011;54895;40.928;14.480;2023-07-31T10:07:56;9.33;;;2.97;;
63688;SDS011;54895;40.928;14.480;2023-07-31T10:10:23;6.70;;;2.58;;
63688;SDS011;54895;40.928;14.480;2023-07-31T10:12:55;6.70;;;2.72;;
63688;SDS011;54895;40.928;14.480;2023-07-31T10:15:22;6.10;;;2.72;;
63688;SDS011;54895;40.928;14.480;2023-07-31T10:17:49;5.20;;;2.40;;
63688;SDS011;54895;40.928;14.480;2023-07-31T10:20:16;7.43;;;2.92;;
63688;SDS011;54895;40.928;14.480;2023-07-31T10:22:43;4.07;;;2.60;;
63688;SDS011;54895;40.928;14.480;2023-07-31T10:25:12;7.13;;;3.10;;
63688;SDS011;54895;40.928;14.480;2023-07-31T10:27:38;5.88;;;2.50;;
63688;SDS011;54895;40.928;14.480;2023-07-31T10:30:06;7.35;;;2.70;;
63688;SDS011;54895;40.928;14.480;2023-07-31T10:32:36;6.03;;;2.15;;
63688;SDS011;54895;40.928;14.480;2023-07-31T10:35:05;5.05;;;2.45;;
63688;SDS011;54895;40.928;14.480;2023-07-31T10:37:41;5.05;;;2.45;;
63688;SDS011;54895;40.928;14.480;2023-07-31T10:40:11;5.15;;;2.60;;
63688;SDS011;54895;40.928;14.480;2023-07-31T10:42:46;5.03;;;2.20;;
63688;SDS011;54895;40.928;14.480;2023-07-31T10:45:14;4.63;;;2.42;;
63688;SDS011;54895;40.928;14.480;2023-07-31T10:48:01;5.82;;;2.35;;
63688;SDS011;54895;40.928;14.480;2023-07-31T10:50:29;5.22;;;2.45;;
63688;SDS011;54895;40.928;14.480;2023-07-31T10:52:58;8.35;;;2.42;;
63688;SDS011;54895;40.928;14.480;2023-07-31T10:59:06;7.40;;;2.60;;
63688;SDS011;54895;40.928;14.480;2023-07-31T11:04:29;4.18;;;2.53;;
63688;SDS011;54895;40.928;14.480;2023-07-31T11:09:28;7.68;;;2.50;;
63688;SDS011;54895;40.928;14.480;2023-07-31T11:11:56;5.55;;;2.15;;
63688;SDS011;54895;40.928;14.480;2023-07-31T11:14:22;5.10;;;2.50;;
63688;SDS011;54895;40.928;14.480;2023-07-31T11:16:49;11.18;;;2.40;;
63688;SDS011;54895;40.928;14.480;2023-07-31T11:19:21;6.18;;;2.40;;
63688;SDS011;54895;40.928;14.480;2023-07-31T11:21:49;6.97;;;2.40;;
63688;SDS011;54895;40.928;14.480;2023-07-31T11:24:17;4.00;;;2.15;;
63688;SDS011;54895;40.928;14.480;2023-07-31T11:26:50;7.63;;;2.08;;
63688;SDS011;54895;40.928;14.480;2023-07-31T11:33:05;4.40;;;2.40;;
63688;SDS011;54895;40.928;14.480;2023-07-31T11:35:44;6.13;;;2.85;;
63688;SDS011;54895;40.928;14.480;2023-07-31T11:38:28;3.97;;;1.90;;
63688;SDS011;54895;40.928;14.480;2023-07-31T11:41:00;8.70;;;2.72;;
63688;SDS011;54895;40.928;14.480;2023-07-31T11:43:37;7.65;;;2.42;;
63688;SDS011;54895;40.928;14.480;2023-07-31T11:46:03;5.45;;;2.53;;
63688;SDS011;54895;40.928;14.480;2023-07-31T11:48:31;4.93;;;2.15;;
63688;SDS011;54895;40.928;14.480;2023-07-31T11:51:03;3.58;;;2.10;;
63688;SDS011;54895;40.928;14.480;2023-07-31T11:53:38;4.35;;;2.20;;
63688;SDS011;54895;40.928;14.480;2023-07-31T11:56:06;8.82;;;2.60;;
63688;SDS011;54895;40.928;14.480;2023-07-31T11:58:34;4.93;;;2.08;;
63688;SDS011;54895;40.928;14.480;2023-07-31T12:01:02;4.38;;;1.88;;
63688;SDS011;54895;40.928;14.480;2023-07-31T12:03:30;2.60;;;1.88;;
63688;SDS011;54895;40.928;14.480;2023-07-31T12:05:58;7.90;;;1.92;;
63688;SDS011;54895;40.928;14.480;2023-07-31T12:08:24;4.32;;;2.20;;
63688;SDS011;54895;40.928;14.480;2023-07-31T12:10:51;5.38;;;1.85;;
63688;SDS011;54895;40.928;14.480;2023-07-31T12:13:25;9.27;;;2.10;;
63688;SDS011;54895;40.928;14.480;2023-07-31T12:15:56;5.20;;;2.00;;
63688;SDS011;54895;40.928;14.480;2023-07-31T12:18:26;4.35;;;1.88;;
63688;SDS011;54895;40.928;14.480;2023-07-31T12:20:55;6.35;;;1.85;;
63688;SDS011;54895;40.928;14.480;2023-07-31T12:23:24;7.05;;;2.00;;
63688;SDS011;54895;40.928;14.480;2023-07-31T12:28:43;5.75;;;1.63;;
63688;SDS011;54895;40.928;14.480;2023-07-31T12:31:17;5.55;;;1.73;;
63688;SDS011;54895;40.928;14.480;2023-07-31T12:33:45;5.88;;;1.83;;
63688;SDS011;54895;40.928;14.480;2023-07-31T12:36:14;4.07;;;1.65;;
63688;SDS011;54895;40.928;14.480;2023-07-31T12:38:42;3.97;;;1.52;;
63688;SDS011;54895;40.928;14.480;2023-07-31T12:41:09;3.38;;;1.80;;
63688;SDS011;54895;40.928;14.480;2023-07-31T12:43:36;4.70;;;1.70;;
63688;SDS011;54895;40.928;14.480;2023-07-31T12:46:04;6.53;;;2.08;;
63688;SDS011;54895;40.928;14.480;2023-07-31T12:48:31;6.10;;;1.63;;
63688;SDS011;54895;40.928;14.480;2023-07-31T12:50:58;7.18;;;1.77;;
63688;SDS011;54895;40.928;14.480;2023-07-31T12:53:24;6.35;;;2.05;;
63688;SDS011;54895;40.928;14.480;2023-07-31T12:55:50;6.28;;;1.80;;
63688;SDS011;54895;40.928;14.480;2023-07-31T12:58:17;3.78;;;1.80;;
63688;SDS011;54895;40.928;14.480;2023-07-31T13:00:43;5.28;;;1.80;;
63688;SDS011;54895;40.928;14.480;2023-07-31T13:03:09;4.93;;;1.30;;
63688;SDS011;54895;40.928;14.480;2023-07-31T13:05:36;4.55;;;1.58;;
63688;SDS011;54895;40.928;14.480;2023-07-31T13:08:02;7.32;;;1.88;;
63688;SDS011;54895;40.928;14.480;2023-07-31T13:10:29;6.57;;;1.80;;
63688;SDS011;54895;40.928;14.480;2023-07-31T13:12:56;5.25;;;1.73;;
63688;SDS011;54895;40.928;14.480;2023-07-31T13:15:22;3.63;;;1.63;;
63688;SDS011;54895;40.928;14.480;2023-07-31T13:17:48;4.90;;;1.67;;
63688;SDS011;54895;40.928;14.480;2023-07-31T13:20:15;3.38;;;1.60;;
63688;SDS011;54895;40.928;14.480;2023-07-31T13:22:41;3.30;;;1.60;;
63688;SDS011;54895;40.928;14.480;2023-07-31T13:25:07;3.83;;;1.42;;
63688;SDS011;54895;40.928;14.480;2023-07-31T13:27:34;3.13;;;1.60;;
63688;SDS011;54895;40.928;14.480;2023-07-31T13:33:34;3.53;;;1.70;;
63688;SDS011;54895;40.928;14.480;2023-07-31T13:36:00;7.35;;;2.20;;
63688;SDS011;54895;40.928;14.480;2023-07-31T13:38:27;4.03;;;1.60;;
63688;SDS011;54895;40.928;14.480;2023-07-31T13:40:53;4.90;;;1.77;;
63688;SDS011;54895;40.928;14.480;2023-07-31T13:43:19;3.38;;;1.40;;
63688;SDS011;54895;40.928;14.480;2023-07-31T13:45:46;3.08;;;1.45;;
63688;SDS011;54895;40.928;14.480;2023-07-31T13:48:12;5.22;;;1.70;;
63688;SDS011;54895;40.928;14.480;2023-07-31T13:50:38;3.78;;;1.60;;
63688;SDS011;54895;40.928;14.480;2023-07-31T13:53:05;6.45;;;1.50;;
63688;SDS011;54895;40.928;14.480;2023-07-31T13:55:33;3.38;;;1.25;;
63688;SDS011;54895;40.928;14.480;2023-07-31T13:58:00;5.63;;;1.83;;
63688;SDS011;54895;40.928;14.480;2023-07-31T14:00:26;6.50;;;1.42;;
63688;SDS011;54895;40.928;14.480;2023-07-31T14:02:54;5.00;;;1.63;;
63688;SDS011;54895;40.928;14.480;2023-07-31T14:05:20;3.15;;;1.50;;
63688;SDS011;54895;40.928;14.480;2023-07-31T14:07:47;6.40;;;1.70;;
63688;SDS011;54895;40.928;14.480;2023-07-31T14:10:13;4.70;;;1.48;;
63688;SDS011;54895;40.928;14.480;2023-07-31T14:12:39;3.53;;;1.50;;
63688;SDS011;54895;40.928;14.480;2023-07-31T14:15:06;4.97;;;1.90;;
63688;SDS011;54895;40.928;14.480;2023-07-31T14:17:32;7.00;;;1.52;;
63688;SDS011;54895;40.928;14.480;2023-07-31T14:19:59;4.35;;;1.60;;
63688;SDS011;54895;40.928;14.480;2023-07-31T14:22:28;4.45;;;1.67;;
63688;SDS011;54895;40.928;14.480;2023-07-31T14:24:55;8.75;;;1.63;;
63688;SDS011;54895;40.928;14.480;2023-07-31T14:27:22;4.47;;;1.67;;
63688;SDS011;54895;40.928;14.480;2023-07-31T14:33:32;3.15;;;1.33;;
63688;SDS011;54895;40.928;14.480;2023-07-31T14:35:58;4.20;;;1.45;;
63688;SDS011;54895;40.928;14.480;2023-07-31T14:38:25;7.28;;;1.58;;
63688;SDS011;54895;40.928;14.480;2023-07-31T14:40:51;6.10;;;1.70;;
63688;SDS011;54895;40.928;14.480;2023-07-31T14:43:17;5.70;;;1.50;;
63688;SDS011;54895;40.928;14.480;2023-07-31T14:45:44;3.50;;;1.38;;
63688;SDS011;54895;40.928;14.480;2023-07-31T14:48:12;6.28;;;1.48;;
63688;SDS011;54895;40.928;14.480;2023-07-31T14:50:57;6.10;;;1.80;;
63688;SDS011;54895;40.928;14.480;2023-07-31T14:53:24;3.75;;;1.70;;
63688;SDS011;54895;40.928;14.480;2023-07-31T14:55:50;4.80;;;1.63;;
63688;SDS011;54895;40.928;14.480;2023-07-31T14:58:16;4.72;;;1.58;;
63688;SDS011;54895;40.928;14.480;2023-07-31T15:00:44;5.20;;;1.52;;
63688;SDS011;54895;40.928;14.480;2023-07-31T15:03:10;5.68;;;1.70;;
63688;SDS011;54895;40.928;14.480;2023-07-31T15:05:36;9.63;;;1.90;;
63688;SDS011;54895;40.928;14.480;2023-07-31T15:08:02;3.08;;;1.27;;
63688;SDS011;54895;40.928;14.480;2023-07-31T15:10:29;3.85;;;1.70;;
63688;SDS011;54895;40.928;14.480;2023-07-31T15:12:55;3.30;;;1.60;;
63688;SDS011;54895;40.928;14.480;2023-07-31T15:15:21;2.80;;;1.55;;
63688;SDS011;54895;40.928;14.480;2023-07-31T15:17:48;5.03;;;1.63;;
63688;SDS011;54895;40.928;14.480;2023-07-31T15:20:14;5.47;;;1.63;;
63688;SDS011;54895;40.928;14.480;2023-07-31T15:22:40;2.63;;;1.35;;
63688;SDS011;54895;40.928;14.480;2023-07-31T15:25:06;4.63;;;1.17;;
63688;SDS011;54895;40.928;14.480;2023-07-31T15:27:33;2.55;;;1.52;;
63688;SDS011;54895;40.928;14.480;2023-07-31T15:33:34;5.70;;;1.70;;
63688;SDS011;54895;40.928;14.480;2023-07-31T15:36:00;3.47;;;1.27;;
63688;SDS011;54895;40.928;14.480;2023-07-31T15:38:27;3.45;;;1.45;;
63688;SDS011;54895;40.928;14.480;2023-07-31T15:40:53;4.78;;;1.67;;
63688;SDS011;54895;40.928;14.480;2023-07-31T15:43:19;5.25;;;1.58;;
63688;SDS011;54895;40.928;14.480;2023-07-31T15:45:47;3.15;;;1.45;;